Time;durP1;ratioP1;P1;durP2;ratioP2;P2;SDS_P1;SDS_P2;PMS_P1;PMS_P2;Temp;Humidity;BMP_temperature;BMP_pressure;BME280_temperature;BME280_humidity;BME280_pressure;Samples;Min_cycle;Max_cycle;Signal;HPM_P1;HPM_P2
2021/10/15 00:02:17;;;;;;;4.97;3.00;;;;;;;;;;4970448;28;20237;-76
2021/10/15 00:04:42;;;;;;;4.40;2.73;;;;;;;;;;4976252;28;20228;-75
2021/10/15 00:07:07;;;;;;;6.47;3.10;;;;;;;;;;4972744;28;20186;-76
2021/10/15 00:09:33;;;;;;;4.10;2.97;;;;;;;;;;4979538;28;20614;-75
2021/10/15 00:11:58;;;;;;;5.37;3.00;;;;;;;;;;4972647;28;20284;-75
2021/10/15 00:14:23;;;;;;;5.90;2.73;;;;;;;;;;4970823;28;20241;-75
2021/10/15 00:16:48;;;;;;;8.57;2.70;;;;;;;;;;4973441;28;20260;-75
2021/10/15 00:19:14;;;;;;;5.50;2.73;;;;;;;;;;4976188;28;20201;-75
2021/10/15 00:21:39;;;;;;;4.87;2.93;;;;;;;;;;4979488;28;20237;-75
2021/10/15 00:24:05;;;;;;;8.73;2.63;;;;;;;;;;4981958;28;20183;-76
2021/10/15 00:26:30;;;;;;;4.40;2.17;;;;;;;;;;4976945;28;20182;-75
2021/10/15 00:28:55;;;;;;;5.40;2.83;;;;;;;;;;4979602;28;20200;-75
2021/10/15 00:31:21;;;;;;;14.03;3.53;;;;;;;;;;4973017;28;20192;-75
2021/10/15 00:33:46;;;;;;;6.07;2.90;;;;;;;;;;4973760;28;20182;-75
2021/10/15 00:36:11;;;;;;;9.13;3.40;;;;;;;;;;4975800;28;20220;-76
2021/10/15 00:38:36;;;;;;;12.17;2.87;;;;;;;;;;4974613;28;20195;-75
2021/10/15 00:41:02;;;;;;;4.87;2.43;;;;;;;;;;4975858;28;20182;-75
2021/10/15 00:43:27;;;;;;;6.47;2.70;;;;;;;;;;4975078;28;20174;-75
2021/10/15 00:45:52;;;;;;;6.70;2.90;;;;;;;;;;4973694;28;20273;-75
2021/10/15 00:48:18;;;;;;;9.73;2.70;;;;;;;;;;4980678;28;20233;-75
2021/10/15 00:50:44;;;;;;;6.00;2.30;;;;;;;;;;4979914;28;20186;-75
2021/10/15 00:53:09;;;;;;;7.60;2.67;;;;;;;;;;4980386;28;20541;-75
2021/10/15 00:55:35;;;;;;;6.93;2.37;;;;;;;;;;4978955;28;20446;-75
2021/10/15 00:58:01;;;;;;;5.10;2.40;;;;;;;;;;4980827;28;20193;-75
2021/10/15 01:00:26;;;;;;;3.83;2.43;;;;;;;;;;4974176;28;20182;-75
2021/10/15 01:02:52;;;;;;;8.63;2.47;;;;;;;;;;4985548;28;20456;-75
2021/10/15 01:05:17;;;;;;;6.73;2.57;;;;;;;;;;4975061;28;20631;-75
2021/10/15 01:07:42;;;;;;;6.20;2.60;;;;;;;;;;4975762;28;20220;-75
2021/10/15 01:10:08;;;;;;;5.33;2.50;;;;;;;;;;4977964;28;20265;-74
2021/10/15 01:12:34;;;;;;;5.17;1.87;;;;;;;;;;4975591;28;20186;-75
2021/10/15 01:14:59;;;;;;;6.10;2.60;;;;;;;;;;4975509;28;20559;-75
2021/10/15 01:17:25;;;;;;;6.77;2.43;;;;;;;;;;4972043;28;20464;-75
2021/10/15 01:19:51;;;;;;;6.10;3.27;;;;;;;;;;4974326;28;20709;-75
2021/10/15 01:22:17;;;;;;;5.00;2.10;;;;;;;;;;4975875;28;20643;-75
2021/10/15 01:24:42;;;;;;;4.70;2.33;;;;;;;;;;4978766;28;20489;-76
2021/10/15 01:27:08;;;;;;;7.60;3.30;;;;;;;;;;4977127;28;20655;-75
2021/10/15 01:29:34;;;;;;;9.20;2.60;;;;;;;;;;4975998;28;20570;-75
2021/10/15 01:31:59;;;;;;;7.83;3.00;;;;;;;;;;4977345;28;20441;-76
2021/10/15 01:34:24;;;;;;;7.93;2.40;;;;;;;;;;4979416;28;20434;-75
2021/10/15 01:36:50;;;;;;;6.10;2.50;;;;;;;;;;4975356;28;20211;-75
2021/10/15 01:39:15;;;;;;;7.77;2.60;;;;;;;;;;4976793;28;20198;-75
2021/10/15 01:41:40;;;;;;;5.77;2.53;;;;;;;;;;4976416;28;21250;-75
2021/10/15 01:44:05;;;;;;;5.13;2.50;;;;;;;;;;4979660;28;20234;-75
2021/10/15 01:46:31;;;;;;;10.10;2.30;;;;;;;;;;4973635;28;20186;-75
2021/10/15 01:48:56;;;;;;;8.40;3.30;;;;;;;;;;4977720;28;21112;-75
2021/10/15 01:51:21;;;;;;;5.53;2.40;;;;;;;;;;4977804;28;20193;-75
2021/10/15 01:53:47;;;;;;;5.70;2.90;;;;;;;;;;4975977;28;20268;-74
2021/10/15 01:56:12;;;;;;;8.20;2.87;;;;;;;;;;4973872;28;20542;-75
2021/10/15 01:58:37;;;;;;;5.47;2.83;;;;;;;;;;4977483;28;20715;-75
2021/10/15 02:01:02;;;;;;;8.47;2.70;;;;;;;;;;4975674;28;20186;-75
2021/10/15 02:03:28;;;;;;;7.93;3.10;;;;;;;;;;4979054;28;20181;-75
2021/10/15 02:05:53;;;;;;;6.50;2.57;;;;;;;;;;4975041;28;20640;-75
2021/10/15 02:08:18;;;;;;;5.10;2.90;;;;;;;;;;4979308;28;20226;-75
2021/10/15 02:10:43;;;;;;;5.53;2.97;;;;;;;;;;4978642;28;20272;-75
2021/10/15 02:13:09;;;;;;;7.50;3.27;;;;;;;;;;4979435;28;20198;-75
2021/10/15 02:15:34;;;;;;;6.57;3.30;;;;;;;;;;4973161;28;20192;-75
2021/10/15 02:17:59;;;;;;;6.40;3.27;;;;;;;;;;4974197;28;20217;-75
2021/10/15 02:20:24;;;;;;;5.13;3.30;;;;;;;;;;4975777;28;20735;-75
2021/10/15 02:22:50;;;;;;;13.93;4.90;;;;;;;;;;4982085;28;20244;-75
2021/10/15 02:25:16;;;;;;;7.77;4.93;;;;;;;;;;4972194;28;20189;-75
2021/10/15 02:27:42;;;;;;;10.50;4.80;;;;;;;;;;4976196;28;20471;-75
2021/10/15 02:30:08;;;;;;;10.20;5.70;;;;;;;;;;4975930;28;20531;-75
2021/10/15 02:32:33;;;;;;;8.10;7.03;;;;;;;;;;4994615;28;20190;-75
2021/10/15 02:34:59;;;;;;;16.07;7.77;;;;;;;;;;4974318;28;20471;-75
2021/10/15 02:37:24;;;;;;;9.47;7.60;;;;;;;;;;4975080;28;20702;-74
2021/10/15 02:39:49;;;;;;;10.03;8.33;;;;;;;;;;4976163;28;20182;-75
2021/10/15 02:42:14;;;;;;;14.67;8.80;;;;;;;;;;4974373;28;20192;-75
2021/10/15 02:44:40;;;;;;;12.87;9.77;;;;;;;;;;4976845;28;20250;-75
2021/10/15 02:47:05;;;;;;;11.03;8.60;;;;;;;;;;4979276;28;20623;-75
2021/10/15 02:49:31;;;;;;;11.50;8.67;;;;;;;;;;4969803;28;20205;-75
2021/10/15 02:51:58;;;;;;;11.77;9.10;;;;;;;;;;4975479;28;20186;-75
2021/10/15 02:54:24;;;;;;;11.43;9.23;;;;;;;;;;4974257;28;20267;-75
2021/10/15 02:56:49;;;;;;;12.30;9.80;;;;;;;;;;4976305;28;20469;-74
2021/10/15 02:59:14;;;;;;;15.07;10.10;;;;;;;;;;4975822;28;20236;-75
2021/10/15 03:01:39;;;;;;;12.17;9.97;;;;;;;;;;4982799;28;20214;-75
2021/10/15 03:04:06;;;;;;;12.60;9.80;;;;;;;;;;4993312;28;20282;-75
2021/10/15 03:06:31;;;;;;;14.80;9.40;;;;;;;;;;4993987;28;20182;-75
2021/10/15 03:08:57;;;;;;;16.43;10.90;;;;;;;;;;4999912;28;20523;-75
2021/10/15 03:11:22;;;;;;;12.53;10.33;;;;;;;;;;4999376;28;20178;-75
2021/10/15 03:13:47;;;;;;;17.23;11.80;;;;;;;;;;5000418;28;20181;-75
2021/10/15 03:16:12;;;;;;;14.70;11.57;;;;;;;;;;4992477;28;20568;-75
2021/10/15 03:18:38;;;;;;;12.60;11.23;;;;;;;;;;4979594;28;20289;-75
2021/10/15 03:21:03;;;;;;;16.60;12.00;;;;;;;;;;4984222;28;20208;-75
2021/10/15 03:23:29;;;;;;;15.60;11.93;;;;;;;;;;4981789;28;20237;-75
2021/10/15 03:25:54;;;;;;;18.10;12.27;;;;;;;;;;4984147;28;20683;-75
2021/10/15 03:28:20;;;;;;;17.73;11.60;;;;;;;;;;4979025;28;20458;-75
2021/10/15 03:30:45;;;;;;;18.00;11.83;;;;;;;;;;4983682;28;20198;-75
2021/10/15 03:33:10;;;;;;;16.00;11.93;;;;;;;;;;4978380;28;20281;-75
2021/10/15 03:35:35;;;;;;;17.20;12.37;;;;;;;;;;4975783;28;20182;-75
2021/10/15 03:38:01;;;;;;;18.70;14.27;;;;;;;;;;4983071;28;20220;-75
2021/10/15 03:40:26;;;;;;;17.10;12.03;;;;;;;;;;4983663;28;20205;-75
2021/10/15 03:42:51;;;;;;;18.60;11.80;;;;;;;;;;4977429;28;20228;-75
2021/10/15 03:45:16;;;;;;;13.43;11.83;;;;;;;;;;4976523;28;20186;-75
2021/10/15 03:47:42;;;;;;;16.20;12.00;;;;;;;;;;4975261;28;20209;-75
2021/10/15 03:50:08;;;;;;;14.30;10.43;;;;;;;;;;4975197;28;20265;-75
2021/10/15 03:52:34;;;;;;;15.17;10.70;;;;;;;;;;4981306;28;20309;-75
2021/10/15 03:54:59;;;;;;;15.73;10.63;;;;;;;;;;4981177;28;20938;-75
2021/10/15 03:57:24;;;;;;;11.50;9.60;;;;;;;;;;4983706;28;20218;-75
2021/10/15 03:59:50;;;;;;;13.00;9.23;;;;;;;;;;4979804;28;20182;-75
2021/10/15 04:02:15;;;;;;;12.60;8.43;;;;;;;;;;4980486;28;21003;-75
2021/10/15 04:04:40;;;;;;;19.37;9.33;;;;;;;;;;4981410;28;20196;-75
2021/10/15 04:07:05;;;;;;;17.50;9.43;;;;;;;;;;4974897;28;20189;-75
2021/10/15 04:09:31;;;;;;;17.73;9.00;;;;;;;;;;4983119;28;20266;-75
2021/10/15 04:11:56;;;;;;;14.77;8.20;;;;;;;;;;4981012;28;20216;-75
2021/10/15 04:14:22;;;;;;;14.93;9.07;;;;;;;;;;4981721;28;20176;-75
2021/10/15 04:16:47;;;;;;;9.13;7.43;;;;;;;;;;4981966;28;20205;-75
2021/10/15 04:19:12;;;;;;;14.60;8.40;;;;;;;;;;4979034;28;20202;-75
2021/10/15 04:21:37;;;;;;;11.77;8.53;;;;;;;;;;4977059;28;20182;-75
2021/10/15 04:24:03;;;;;;;9.60;7.83;;;;;;;;;;4979996;28;20185;-75
2021/10/15 04:26:28;;;;;;;14.93;8.07;;;;;;;;;;4976162;28;20196;-75
2021/10/15 04:28:53;;;;;;;11.77;7.60;;;;;;;;;;4981156;28;20210;-75
2021/10/15 04:31:18;;;;;;;12.53;8.17;;;;;;;;;;4986895;28;20529;-75
2021/10/15 04:33:44;;;;;;;14.97;7.80;;;;;;;;;;4981235;28;20178;-75
2021/10/15 04:36:09;;;;;;;20.27;9.10;;;;;;;;;;4985235;28;20285;-75
2021/10/15 04:38:34;;;;;;;14.43;8.03;;;;;;;;;;4979754;28;20240;-75
2021/10/15 04:41:00;;;;;;;9.10;7.03;;;;;;;;;;4975219;28;20273;-75
2021/10/15 04:43:25;;;;;;;10.53;6.43;;;;;;;;;;4972626;28;20526;-75
2021/10/15 04:45:50;;;;;;;15.50;7.13;;;;;;;;;;4976795;28;20185;-74
2021/10/15 04:48:15;;;;;;;12.60;6.97;;;;;;;;;;4974341;28;20296;-75
2021/10/15 04:50:41;;;;;;;18.20;6.40;;;;;;;;;;4974114;28;20826;-75
2021/10/15 04:53:07;;;;;;;9.03;5.87;;;;;;;;;;4977908;28;20305;-75
2021/10/15 04:55:34;;;;;;;12.90;6.67;;;;;;;;;;4972251;28;20186;-74
2021/10/15 04:58:00;;;;;;;14.13;6.07;;;;;;;;;;4976203;28;20202;-75
2021/10/15 05:00:26;;;;;;;11.67;5.70;;;;;;;;;;4978600;28;20442;-75
2021/10/15 05:02:52;;;;;;;12.93;6.20;;;;;;;;;;4981143;28;20178;-75
2021/10/15 05:05:20;;;;;;;11.70;6.10;;;;;;;;;;4979542;28;20456;-75
2021/10/15 05:07:45;;;;;;;10.67;4.97;;;;;;;;;;4979630;28;20594;-75
2021/10/15 05:10:10;;;;;;;4.20;3.70;;;;;;;;;;4975957;28;20436;-76
2021/10/15 05:12:36;;;;;;;3.70;1.10;;;;;;;;;;4976439;28;20206;-76
2021/10/15 05:15:01;;;;;;;1.53;0.83;;;;;;;;;;4973889;28;20273;-76
2021/10/15 05:17:26;;;;;;;5.17;0.83;;;;;;;;;;4976622;28;20777;-76
2021/10/15 05:19:52;;;;;;;5.50;1.20;;;;;;;;;;4980013;28;20356;-76
2021/10/15 05:22:17;;;;;;;3.70;0.90;;;;;;;;;;4976506;28;20178;-75
2021/10/15 05:24:42;;;;;;;6.50;1.00;;;;;;;;;;4977413;28;20175;-76
2021/10/15 05:27:07;;;;;;;5.07;1.03;;;;;;;;;;4976498;28;20194;-77
2021/10/15 05:29:33;;;;;;;3.80;0.73;;;;;;;;;;4978174;28;20182;-76
2021/10/15 05:31:58;;;;;;;7.13;1.27;;;;;;;;;;4971911;28;20178;-76
2021/10/15 05:34:23;;;;;;;3.67;1.20;;;;;;;;;;4975617;28;20178;-76
2021/10/15 05:36:48;;;;;;;6.13;1.47;;;;;;;;;;4975018;28;20210;-75
2021/10/15 05:39:16;;;;;;;9.67;1.60;;;;;;;;;;4977374;28;20348;-76
2021/10/15 05:41:41;;;;;;;6.03;1.40;;;;;;;;;;4977511;28;20182;-76
2021/10/15 05:44:06;;;;;;;4.20;1.57;;;;;;;;;;4975980;28;20456;-76
2021/10/15 05:46:32;;;;;;;7.80;1.70;;;;;;;;;;4973751;28;20179;-76
2021/10/15 05:48:57;;;;;;;7.63;1.50;;;;;;;;;;4976272;28;20275;-76
2021/10/15 05:51:24;;;;;;;10.23;1.47;;;;;;;;;;4981508;28;20182;-76
2021/10/15 05:53:52;;;;;;;12.93;2.53;;;;;;;;;;4981745;28;20182;-76
2021/10/15 05:57:16;;;;;;;7.90;1.47;;;;;;;;;;4987800;28;20453;-75
2021/10/15 05:59:05;;;;;;;8.40;1.40;;;;;;;;;;4985648;28;20527;-76
2021/10/15 06:01:32;;;;;;;5.17;1.40;;;;;;;;;;4984191;28;20445;-75
2021/10/15 06:14:28;;;;;;;7.60;1.80;;;;;;;;;;4969213;28;20500;-76
2021/10/15 06:17:11;;;;;;;11.73;2.03;;;;;;;;;;4972416;28;22058;-76
2021/10/15 06:19:52;;;;;;;10.60;1.80;;;;;;;;;;4972634;28;20460;-76
2021/10/15 06:22:18;;;;;;;4.83;1.00;;;;;;;;;;4972619;28;20443;-76
2021/10/15 06:24:43;;;;;;;5.13;1.10;;;;;;;;;;4973486;28;20825;-75
2021/10/15 06:27:08;;;;;;;7.43;1.20;;;;;;;;;;4976110;28;20218;-75
2021/10/15 06:29:34;;;;;;;6.60;1.10;;;;;;;;;;4974221;28;20214;-75
2021/10/15 06:31:59;;;;;;;4.83;1.37;;;;;;;;;;4974281;28;20666;-76
2021/10/15 06:34:25;;;;;;;4.20;1.23;;;;;;;;;;4973355;28;20181;-76
2021/10/15 06:36:50;;;;;;;9.37;1.50;;;;;;;;;;4976743;28;20190;-76
2021/10/15 06:39:15;;;;;;;8.10;1.90;;;;;;;;;;4974345;28;20286;-76
2021/10/15 06:41:40;;;;;;;4.87;1.33;;;;;;;;;;4972996;28;20189;-77
2021/10/15 06:44:05;;;;;;;7.17;1.57;;;;;;;;;;4973629;28;20566;-76
2021/10/15 06:46:31;;;;;;;14.10;2.17;;;;;;;;;;4974521;28;20212;-76
2021/10/15 06:48:56;;;;;;;8.13;1.63;;;;;;;;;;4980112;28;20260;-75
2021/10/15 06:51:21;;;;;;;10.33;1.77;;;;;;;;;;4980942;28;20189;-75
2021/10/15 06:53:46;;;;;;;9.70;1.83;;;;;;;;;;4983996;28;20193;-75
2021/10/15 06:56:12;;;;;;;13.00;1.93;;;;;;;;;;4979780;28;20293;-75
2021/10/15 06:58:37;;;;;;;6.83;1.43;;;;;;;;;;4975472;28;20283;-75
2021/10/15 07:01:02;;;;;;;7.70;1.60;;;;;;;;;;4979127;28;20640;-75
2021/10/15 07:03:28;;;;;;;7.53;1.40;;;;;;;;;;4979685;28;20214;-76
2021/10/15 07:05:53;;;;;;;9.00;1.70;;;;;;;;;;4976709;28;20201;-76
2021/10/15 07:08:18;;;;;;;11.53;2.40;;;;;;;;;;4979185;28;20209;-76
2021/10/15 07:10:44;;;;;;;8.27;1.37;;;;;;;;;;4979264;28;20185;-76
2021/10/15 07:13:12;;;;;;;9.13;1.40;;;;;;;;;;4977360;28;20177;-76
2021/10/15 07:15:37;;;;;;;4.80;1.53;;;;;;;;;;4979313;28;20818;-75
2021/10/15 07:18:06;;;;;;;5.23;1.27;;;;;;;;;;4978593;28;20922;-76
2021/10/15 07:20:32;;;;;;;6.40;1.23;;;;;;;;;;4977228;28;20276;-75
2021/10/15 07:22:57;;;;;;;5.10;1.40;;;;;;;;;;4973375;28;20797;-75
2021/10/15 07:25:23;;;;;;;3.63;1.30;;;;;;;;;;4976784;28;20194;-75
2021/10/15 07:27:48;;;;;;;5.40;1.30;;;;;;;;;;4980177;28;20263;-75
2021/10/15 07:30:14;;;;;;;5.90;1.23;;;;;;;;;;4981076;28;20963;-75
2021/10/15 07:32:39;;;;;;;4.83;1.37;;;;;;;;;;4987542;28;20192;-75
2021/10/15 07:35:05;;;;;;;6.90;1.33;;;;;;;;;;4976400;28;20670;-75
2021/10/15 07:37:30;;;;;;;6.63;1.30;;;;;;;;;;4988307;28;20758;-75
2021/10/15 07:39:55;;;;;;;7.80;1.30;;;;;;;;;;4975714;28;20435;-75
2021/10/15 07:42:23;;;;;;;5.07;1.20;;;;;;;;;;4975285;28;20181;-74
2021/10/15 07:44:49;;;;;;;3.00;1.10;;;;;;;;;;4980066;28;20193;-75
2021/10/15 07:47:14;;;;;;;7.77;1.60;;;;;;;;;;4974091;28;20441;-75
2021/10/15 07:49:39;;;;;;;6.40;1.30;;;;;;;;;;4979464;28;20196;-75
2021/10/15 07:52:05;;;;;;;4.90;1.70;;;;;;;;;;4978842;28;20210;-75
2021/10/15 07:54:30;;;;;;;5.93;1.53;;;;;;;;;;4979450;28;20529;-75
2021/10/15 07:56:56;;;;;;;5.93;1.23;;;;;;;;;;4975298;28;20202;-75
2021/10/15 07:59:22;;;;;;;5.67;1.53;;;;;;;;;;4981202;28;20312;-75
2021/10/15 08:01:47;;;;;;;9.90;1.80;;;;;;;;;;4978493;28;20666;-75
2021/10/15 08:04:13;;;;;;;13.70;1.70;;;;;;;;;;4976288;28;20448;-74
2021/10/15 08:06:39;;;;;;;9.27;1.90;;;;;;;;;;4979692;28;20285;-75
2021/10/15 08:09:04;;;;;;;7.90;1.67;;;;;;;;;;4990919;28;20311;-76
2021/10/15 08:11:29;;;;;;;5.53;1.50;;;;;;;;;;4975864;28;20193;-76
2021/10/15 08:13:54;;;;;;;6.13;2.10;;;;;;;;;;4973754;28;20197;-76
2021/10/15 08:16:20;;;;;;;7.37;2.50;;;;;;;;;;4978317;28;20742;-76
2021/10/15 08:18:47;;;;;;;7.27;1.50;;;;;;;;;;4976615;28;20221;-76
2021/10/15 08:21:12;;;;;;;7.73;2.00;;;;;;;;;;4972840;28;20179;-76
2021/10/15 08:23:39;;;;;;;6.10;1.97;;;;;;;;;;4970780;28;21481;-75
2021/10/15 08:26:05;;;;;;;10.17;1.90;;;;;;;;;;4973420;28;20670;-76
2021/10/15 08:28:33;;;;;;;11.30;2.37;;;;;;;;;;4976884;28;20507;-76
2021/10/15 08:30:59;;;;;;;11.03;2.17;;;;;;;;;;4979111;28;20194;-76
2021/10/15 08:33:24;;;;;;;8.77;1.90;;;;;;;;;;4970236;28;21864;-76
2021/10/15 08:35:49;;;;;;;9.80;1.90;;;;;;;;;;4972613;28;20606;-76
2021/10/15 08:38:15;;;;;;;14.83;2.50;;;;;;;;;;4969611;28;20626;-75
2021/10/15 08:40:40;;;;;;;10.10;2.00;;;;;;;;;;4991070;28;20234;-74
2021/10/15 08:43:05;;;;;;;6.13;1.50;;;;;;;;;;4970222;28;20286;-76
2021/10/15 08:45:31;;;;;;;8.80;2.50;;;;;;;;;;4971004;28;20182;-76
2021/10/15 08:47:57;;;;;;;11.77;2.53;;;;;;;;;;4975296;28;20221;-76
2021/10/15 08:50:23;;;;;;;16.03;2.90;;;;;;;;;;4979013;28;20472;-76
2021/10/15 08:52:49;;;;;;;14.63;2.80;;;;;;;;;;4968187;28;20930;-75
2021/10/15 08:55:14;;;;;;;12.50;2.93;;;;;;;;;;4978766;28;20720;-75
2021/10/15 08:57:45;;;;;;;8.77;2.57;;;;;;;;;;4980915;28;20234;-75
2021/10/15 09:00:31;;;;;;;8.50;2.07;;;;;;;;;;4980583;28;20930;-75
2021/10/15 09:03:13;;;;;;;8.10;2.37;;;;;;;;;;4979233;28;20431;-75
2021/10/15 09:05:40;;;;;;;14.17;2.80;;;;;;;;;;4982130;28;20421;-75
2021/10/15 09:08:05;;;;;;;15.80;2.97;;;;;;;;;;4983998;28;20456;-77
2021/10/15 09:10:32;;;;;;;8.30;2.57;;;;;;;;;;4997585;28;20771;-76
2021/10/15 09:12:57;;;;;;;10.20;2.30;;;;;;;;;;4977203;28;20190;-75
2021/10/15 09:15:36;;;;;;;10.03;2.60;;;;;;;;;;4978132;28;20435;-76
2021/10/15 09:18:12;;;;;;;14.27;2.70;;;;;;;;;;4977339;28;20243;-75
2021/10/15 09:20:37;;;;;;;9.93;2.57;;;;;;;;;;4976343;28;20440;-76
2021/10/15 09:23:02;;;;;;;13.30;2.97;;;;;;;;;;4979889;28;20460;-77
2021/10/15 09:25:32;;;;;;;12.30;2.80;;;;;;;;;;4981072;28;20192;-78
2021/10/15 09:27:58;;;;;;;13.73;3.00;;;;;;;;;;4981450;28;20741;-75
2021/10/15 09:30:24;;;;;;;7.60;2.43;;;;;;;;;;4975591;28;20523;-77
2021/10/15 09:32:53;;;;;;;8.33;2.23;;;;;;;;;;4979805;28;20273;-77
2021/10/15 09:35:21;;;;;;;9.57;2.83;;;;;;;;;;4979968;28;20986;-77
2021/10/15 09:37:47;;;;;;;15.87;2.93;;;;;;;;;;4980231;28;20472;-75
2021/10/15 09:40:12;;;;;;;10.07;2.80;;;;;;;;;;4976719;28;20430;-76
2021/10/15 09:42:42;;;;;;;7.70;2.97;;;;;;;;;;4981047;28;20494;-76
2021/10/15 09:45:15;;;;;;;5.37;1.77;;;;;;;;;;4980836;28;20182;-75
2021/10/15 09:47:47;;;;;;;13.03;2.53;;;;;;;;;;4973677;28;20471;-76
2021/10/15 09:50:14;;;;;;;9.40;2.57;;;;;;;;;;4975549;28;20504;-76
2021/10/15 09:52:41;;;;;;;9.30;2.27;;;;;;;;;;4976982;28;20444;-76
2021/10/15 09:55:12;;;;;;;7.30;2.10;;;;;;;;;;4976016;28;20463;-76
2021/10/15 09:57:39;;;;;;;8.23;2.33;;;;;;;;;;4972010;28;20515;-74
2021/10/15 10:00:06;;;;;;;8.87;2.83;;;;;;;;;;4975956;28;20428;-75
2021/10/15 10:02:32;;;;;;;8.03;2.77;;;;;;;;;;4977056;28;20440;-76
2021/10/15 10:04:58;;;;;;;11.43;2.50;;;;;;;;;;4972650;28;20437;-77
2021/10/15 10:07:24;;;;;;;13.93;2.83;;;;;;;;;;4974794;28;20468;-75
2021/10/15 10:09:49;;;;;;;7.40;2.53;;;;;;;;;;4973849;28;20178;-75
2021/10/15 10:12:15;;;;;;;6.47;2.10;;;;;;;;;;4976158;28;20241;-77
2021/10/15 10:14:40;;;;;;;13.00;2.87;;;;;;;;;;4975309;28;20190;-74
2021/10/15 10:17:08;;;;;;;9.27;2.83;;;;;;;;;;4972698;28;20231;-75
2021/10/15 10:19:36;;;;;;;10.43;2.20;;;;;;;;;;4975444;28;20189;-76
2021/10/15 10:22:01;;;;;;;16.93;2.60;;;;;;;;;;4973490;28;20571;-75
2021/10/15 10:24:31;;;;;;;11.30;2.97;;;;;;;;;;4984601;28;20434;-76
2021/10/15 10:26:56;;;;;;;8.07;2.63;;;;;;;;;;4974973;28;20272;-75
2021/10/15 10:29:22;;;;;;;9.57;2.37;;;;;;;;;;4971397;28;20460;-75
2021/10/15 10:31:47;;;;;;;5.37;1.93;;;;;;;;;;4973847;28;20271;-74
2021/10/15 10:34:14;;;;;;;8.20;2.30;;;;;;;;;;4973917;28;20522;-75
2021/10/15 10:36:40;;;;;;;12.73;2.23;;;;;;;;;;4977076;28;20605;-75
2021/10/15 10:39:21;;;;;;;6.80;2.07;;;;;;;;;;5070101;27;20583;-76
2021/10/15 10:42:06;;;;;;;11.43;2.70;;;;;;;;;;5061500;28;20786;-76
2021/10/15 10:44:36;;;;;;;7.40;2.10;;;;;;;;;;5060758;28;20199;-76
2021/10/15 10:47:06;;;;;;;8.67;2.20;;;;;;;;;;5063082;28;20438;-75
2021/10/15 10:49:31;;;;;;;12.20;4.03;;;;;;;;;;5057583;28;20466;-76
2021/10/15 10:52:06;;;;;;;12.50;2.50;;;;;;;;;;5059262;28;20492;-76
2021/10/15 10:54:31;;;;;;;4.73;2.43;;;;;;;;;;5059860;28;20182;-75
2021/10/15 10:56:56;;;;;;;8.73;2.73;;;;;;;;;;5059368;28;20430;-76
2021/10/15 10:59:28;;;;;;;8.27;2.20;;;;;;;;;;5055475;28;20240;-76
2021/10/15 11:01:55;;;;;;;6.30;2.30;;;;;;;;;;5062610;28;20183;-76
2021/10/15 11:04:26;;;;;;;12.13;2.47;;;;;;;;;;5065177;28;20881;-76
2021/10/15 11:06:54;;;;;;;6.43;2.40;;;;;;;;;;5057980;28;20489;-76
2021/10/15 11:09:35;;;;;;;6.60;1.90;;;;;;;;;;5054108;28;20449;-76
2021/10/15 11:12:00;;;;;;;8.90;2.17;;;;;;;;;;5055107;28;20444;-76
2021/10/15 11:14:44;;;;;;;18.23;2.70;;;;;;;;;;5056223;28;21207;-76
2021/10/15 11:17:11;;;;;;;7.40;2.50;;;;;;;;;;5047923;28;20187;-75
2021/10/15 11:19:36;;;;;;;9.53;2.40;;;;;;;;;;5050516;28;20429;-76
2021/10/15 11:22:02;;;;;;;8.30;2.40;;;;;;;;;;5055449;28;20432;-76
2021/10/15 11:24:27;;;;;;;8.47;2.63;;;;;;;;;;5052584;28;20183;-76
2021/10/15 11:26:52;;;;;;;14.00;3.13;;;;;;;;;;5056396;28;20698;-76
2021/10/15 11:29:17;;;;;;;8.80;2.40;;;;;;;;;;5060022;28;20210;-76
2021/10/15 11:31:51;;;;;;;12.77;2.77;;;;;;;;;;5057020;28;20178;-76
2021/10/15 11:34:16;;;;;;;7.80;2.20;;;;;;;;;;5052223;28;20250;-74
2021/10/15 11:36:41;;;;;;;8.53;2.57;;;;;;;;;;5049881;28;20527;-74
2021/10/15 11:39:07;;;;;;;8.13;2.60;;;;;;;;;;5054098;28;20262;-76
2021/10/15 11:41:32;;;;;;;4.87;1.90;;;;;;;;;;5059014;28;20218;-74
2021/10/15 11:43:57;;;;;;;7.93;2.47;;;;;;;;;;5060193;28;20836;-74
2021/10/15 11:46:25;;;;;;;9.83;2.50;;;;;;;;;;5055907;28;20190;-74
2021/10/15 11:48:52;;;;;;;15.43;3.20;;;;;;;;;;5045232;28;20202;-74
2021/10/15 11:51:35;;;;;;;6.37;2.27;;;;;;;;;;5036584;28;20434;-74
2021/10/15 11:54:01;;;;;;;7.43;1.67;;;;;;;;;;5032023;28;20923;-74
2021/10/15 11:56:30;;;;;;;5.80;1.73;;;;;;;;;;5037862;28;20434;-75
2021/10/15 11:58:56;;;;;;;7.60;1.93;;;;;;;;;;5037587;28;20505;-75
2021/10/15 12:01:22;;;;;;;3.40;1.70;;;;;;;;;;5038839;28;20449;-76
2021/10/15 12:03:52;;;;;;;5.83;2.23;;;;;;;;;;5038984;28;20416;-75
2021/10/15 12:06:21;;;;;;;8.23;1.87;;;;;;;;;;5033490;28;20180;-74
2021/10/15 12:08:47;;;;;;;5.60;2.20;;;;;;;;;;5038112;28;20451;-75
2021/10/15 12:11:18;;;;;;;4.97;1.73;;;;;;;;;;5039585;28;20931;-76
2021/10/15 12:13:44;;;;;;;5.43;1.97;;;;;;;;;;5038212;28;20841;-76
2021/10/15 12:16:29;;;;;;;10.10;2.70;;;;;;;;;;5040010;28;20442;-76
2021/10/15 12:18:55;;;;;;;7.63;1.93;;;;;;;;;;5053657;28;20462;-76
2021/10/15 12:21:20;;;;;;;5.17;1.57;;;;;;;;;;5040678;28;20431;-76
2021/10/15 12:23:50;;;;;;;7.90;1.93;;;;;;;;;;5043035;28;20427;-76
2021/10/15 12:26:16;;;;;;;5.27;1.67;;;;;;;;;;5037770;28;20204;-76
2021/10/15 12:28:41;;;;;;;7.93;1.97;;;;;;;;;;5037228;28;20496;-76
2021/10/15 12:31:21;;;;;;;3.73;1.40;;;;;;;;;;5034855;28;20457;-76
2021/10/15 12:34:19;;;;;;;5.23;1.67;;;;;;;;;;5033684;28;20250;-76
2021/10/15 12:36:44;;;;;;;4.17;1.30;;;;;;;;;;5023914;28;20441;-76
2021/10/15 12:39:16;;;;;;;4.13;1.53;;;;;;;;;;5043361;28;20480;-77
2021/10/15 12:41:42;;;;;;;5.23;1.40;;;;;;;;;;5046285;28;20640;-77
2021/10/15 12:44:26;;;;;;;3.03;1.00;;;;;;;;;;5034760;28;20442;-77
2021/10/15 12:46:55;;;;;;;2.43;0.97;;;;;;;;;;5040755;28;20177;-78
2021/10/15 12:49:20;;;;;;;4.43;1.23;;;;;;;;;;5042250;28;20518;-76
2021/10/15 12:51:46;;;;;;;1.93;1.13;;;;;;;;;;5041080;28;20464;-76
2021/10/15 12:54:13;;;;;;;3.27;1.10;;;;;;;;;;5041265;28;20684;-76
2021/10/15 12:56:41;;;;;;;4.30;0.97;;;;;;;;;;5043333;28;20179;-77
2021/10/15 12:59:16;;;;;;;3.00;1.40;;;;;;;;;;5043221;28;20491;-77
2021/10/15 13:01:43;;;;;;;7.10;0.90;;;;;;;;;;5041604;28;20417;-77
2021/10/15 13:04:08;;;;;;;2.37;1.10;;;;;;;;;;5038930;28;20942;-76
2021/10/15 13:06:33;;;;;;;3.60;1.23;;;;;;;;;;5037771;28;20426;-77
2021/10/15 13:08:59;;;;;;;3.37;1.27;;;;;;;;;;5035778;28;20658;-77
2021/10/15 13:11:25;;;;;;;2.70;1.20;;;;;;;;;;5034487;28;20191;-76
2021/10/15 13:13:52;;;;;;;3.80;1.90;;;;;;;;;;5039386;28;20173;-77
2021/10/15 13:16:18;;;;;;;3.63;1.30;;;;;;;;;;5036786;28;20779;-77
2021/10/15 13:18:43;;;;;;;4.93;1.83;;;;;;;;;;5048612;28;20466;-77
2021/10/15 13:21:09;;;;;;;5.50;1.10;;;;;;;;;;5042591;28;20609;-76
2021/10/15 13:23:34;;;;;;;3.10;1.20;;;;;;;;;;5038785;28;20578;-78
2021/10/15 13:26:00;;;;;;;3.90;1.17;;;;;;;;;;5036851;28;20174;-77
2021/10/15 13:28:25;;;;;;;3.43;1.43;;;;;;;;;;5033152;28;20227;-77
2021/10/15 13:30:52;;;;;;;2.03;1.10;;;;;;;;;;5032275;28;20200;-76
2021/10/15 13:33:18;;;;;;;6.17;1.20;;;;;;;;;;5030371;28;20190;-76
2021/10/15 13:35:46;;;;;;;3.60;1.40;;;;;;;;;;5038491;28;20459;-76
2021/10/15 13:38:14;;;;;;;6.83;1.67;;;;;;;;;;5032201;28;20477;-76
2021/10/15 13:41:25;;;;;;;3.90;1.90;;;;;;;;;;5037376;28;20486;-76
2021/10/15 13:46:02;;;;;;;3.30;1.10;;;;;;;;;;5038389;28;20444;-77
2021/10/15 13:50:59;;;;;;;5.80;2.57;;;;;;;;;;5030354;28;20433;-76
2021/10/15 13:53:28;;;;;;;7.90;1.90;;;;;;;;;;5034968;28;20429;-75
2021/10/15 13:56:00;;;;;;;4.50;1.90;;;;;;;;;;5046019;28;20452;-77
2021/10/15 13:58:43;;;;;;;8.53;2.33;;;;;;;;;;5049077;28;20643;-77
2021/10/15 14:01:53;;;;;;;4.87;1.60;;;;;;;;;;5046109;28;20447;-76
2021/10/15 14:06:25;;;;;;;7.80;1.80;;;;;;;;;;5035209;28;20427;-76
2021/10/15 14:08:50;;;;;;;7.60;2.47;;;;;;;;;;5026952;28;20453;-76
2021/10/15 14:11:19;;;;;;;5.80;2.10;;;;;;;;;;5033324;28;20194;-76
2021/10/15 14:13:45;;;;;;;8.57;2.50;;;;;;;;;;5043857;28;20266;-76
2021/10/15 14:16:13;;;;;;;7.47;2.43;;;;;;;;;;5031227;28;20809;-75
2021/10/15 14:18:38;;;;;;;4.50;1.70;;;;;;;;;;5033369;28;20204;-75
2021/10/15 14:21:03;;;;;;;11.20;1.73;;;;;;;;;;5043269;28;20836;-75
2021/10/15 14:23:28;;;;;;;7.40;2.10;;;;;;;;;;5037909;28;20178;-75
2021/10/15 14:25:54;;;;;;;6.53;1.70;;;;;;;;;;5036063;28;20245;-76
2021/10/15 14:28:21;;;;;;;4.43;1.73;;;;;;;;;;5040594;28;20196;-75
2021/10/15 14:30:47;;;;;;;6.73;1.70;;;;;;;;;;5035356;28;20191;-75
2021/10/15 14:33:12;;;;;;;5.50;1.83;;;;;;;;;;5043025;28;20425;-75
2021/10/15 14:35:37;;;;;;;4.13;1.80;;;;;;;;;;5036636;28;20261;-75
2021/10/15 14:38:03;;;;;;;4.70;1.90;;;;;;;;;;5038020;28;20211;-75
2021/10/15 14:40:28;;;;;;;6.90;1.93;;;;;;;;;;5037417;28;20187;-75
2021/10/15 14:42:53;;;;;;;9.63;1.60;;;;;;;;;;5058541;28;20182;-75
2021/10/15 14:45:19;;;;;;;4.87;1.40;;;;;;;;;;5044165;28;20186;-76
2021/10/15 14:47:44;;;;;;;5.87;1.60;;;;;;;;;;5046867;28;20260;-75
2021/10/15 14:50:09;;;;;;;3.73;1.73;;;;;;;;;;5038049;28;20202;-75
2021/10/15 14:52:34;;;;;;;4.97;1.63;;;;;;;;;;5043156;28;20628;-76
2021/10/15 14:55:00;;;;;;;7.53;1.70;;;;;;;;;;5051605;28;20222;-75